createdAt,value
2022-11-24T00:02:07.905Z,172.03
2022-11-24T00:04:55.883Z,168.13
2022-11-24T00:07:45.224Z,167.30
2022-11-24T00:10:34.110Z,181.03
2022-11-24T00:13:22.041Z,178.50
2022-11-24T00:16:12.579Z,181.63
2022-11-24T00:19:02.281Z,175.83
2022-11-24T00:21:50.228Z,189.07
2022-11-24T00:24:39.459Z,189.80
2022-11-24T00:27:27.372Z,174.73
2022-11-24T00:30:15.434Z,180.80
2022-11-24T00:33:03.358Z,173.43
2022-11-24T00:35:55.900Z,170.30
2022-11-24T00:38:44.270Z,188.83
2022-11-24T00:41:33.872Z,195.67
2022-11-24T00:44:21.803Z,198.33
2022-11-24T00:47:09.811Z,165.27
2022-11-24T00:49:57.764Z,200.43
2022-11-24T00:52:45.668Z,186.73
2022-11-24T00:55:33.582Z,183.70
2022-11-24T00:58:23.362Z,173.30
2022-11-24T01:01:13.881Z,185.13
2022-11-24T01:04:02.462Z,169.63
2022-11-24T01:06:50.339Z,167.83
2022-11-24T01:09:38.739Z,187.83
2022-11-24T01:12:26.620Z,179.50
2022-11-24T01:15:15.971Z,168.70
2022-11-24T01:18:04.007Z,174.80
2022-11-24T01:20:51.953Z,186.20
2022-11-24T01:23:40.099Z,172.97
2022-11-24T01:26:27.995Z,189.33
2022-11-24T01:29:15.964Z,181.73
2022-11-24T01:32:05.804Z,194.03
2022-11-24T01:34:53.703Z,176.80
2022-11-24T01:37:41.583Z,170.77
2022-11-24T01:40:29.923Z,172.53
2022-11-24T01:43:19.959Z,182.93
2022-11-24T01:46:17.873Z,193.87
2022-11-24T01:49:14.513Z,182.60
2022-11-24T01:52:07.908Z,195.57
2022-11-24T01:54:58.576Z,172.70
2022-11-24T01:57:51.088Z,180.60
2022-11-24T02:00:41.114Z,181.70
2022-11-24T02:03:34.946Z,182.20
2022-11-24T02:06:28.392Z,186.30
2022-11-24T02:09:22.879Z,177.13
2022-11-24T02:12:10.919Z,180.23
2022-11-24T02:15:00.235Z,177.33
2022-11-24T02:17:48.106Z,188.77
2022-11-24T02:20:36.516Z,183.50
2022-11-24T02:23:31.973Z,181.63
2022-11-24T02:26:28.851Z,183.63
2022-11-24T02:29:17.119Z,174.13
2022-11-24T02:32:08.354Z,170.23
2022-11-24T02:35:01.924Z,192.33
2022-11-24T02:37:49.897Z,172.33
2022-11-24T02:40:38.288Z,179.43
2022-11-24T02:43:33.304Z,184.13
2022-11-24T02:46:21.360Z,172.77
2022-11-24T02:49:09.385Z,182.37
2022-11-24T02:51:57.760Z,178.07
2022-11-24T02:54:45.755Z,182.03
2022-11-24T02:57:33.743Z,196.67
2022-11-24T03:00:23.122Z,168.17
2022-11-24T03:03:11.232Z,172.70
2022-11-24T03:05:59.171Z,172.93
2022-11-24T03:08:47.081Z,171.83
2022-11-24T03:11:34.968Z,169.47
2022-11-24T03:14:22.869Z,186.70
2022-11-24T03:17:12.720Z,193.10
2022-11-24T03:20:04.996Z,186.57
2022-11-24T03:22:53.401Z,186.20
2022-11-24T03:25:41.275Z,160.83
2022-11-24T03:28:29.136Z,177.20
2022-11-24T03:31:17.338Z,181.67
2022-11-24T03:34:06.597Z,171.90
2022-11-24T03:36:54.470Z,164.63
2022-11-24T03:39:42.602Z,198.60
2022-11-24T03:42:30.483Z,169.53
2022-11-24T03:48:27.125Z,189.30
2022-11-24T03:51:16.455Z,181.73
2022-11-24T03:54:04.552Z,175.67
2022-11-24T03:56:52.886Z,181.47
2022-11-24T03:59:41.048Z,187.17
2022-11-24T04:02:28.985Z,190.37
2022-11-24T04:05:17.084Z,189.17
2022-11-24T04:08:07.012Z,170.03
2022-11-24T04:10:55.464Z,185.93
2022-11-24T04:13:42.382Z,180.70
2022-11-24T04:16:30.322Z,203.43
2022-11-24T04:19:18.484Z,211.63
2022-11-24T04:22:06.369Z,191.50
2022-11-24T04:24:55.613Z,197.77
2022-11-24T04:27:43.893Z,212.63
2022-11-24T04:30:31.802Z,188.37
2022-11-24T04:33:19.691Z,212.30
2022-11-24T04:36:07.936Z,201.23
2022-11-24T04:39:25.933Z,201.80
2022-11-24T04:42:05.235Z,185.07
2022-11-24T04:44:53.168Z,190.30
2022-11-24T04:47:41.092Z,206.77
2022-11-24T04:50:28.976Z,192.90
2022-11-24T04:53:16.906Z,200.80
2022-11-24T04:56:06.525Z,176.93
2022-11-24T04:58:55.756Z,195.37
2022-11-24T05:01:44.057Z,204.13
2022-11-24T05:04:32.464Z,190.87
2022-11-24T05:07:20.720Z,179.17
2022-11-24T05:10:27.029Z,203.93
2022-11-24T05:13:14.924Z,208.00
2022-11-24T05:16:04.509Z,192.67
2022-11-24T05:18:52.423Z,209.70
2022-11-24T05:21:40.443Z,225.47
2022-11-24T05:24:28.347Z,219.03
2022-11-24T05:27:16.328Z,207.80
2022-11-24T05:30:05.073Z,209.87
2022-11-24T05:32:54.334Z,214.40
2022-11-24T05:35:42.490Z,210.87
2022-11-24T05:38:30.586Z,201.40
2022-11-24T05:41:18.482Z,207.97
2022-11-24T05:44:06.591Z,224.00
2022-11-24T05:46:54.615Z,197.50
2022-11-24T05:49:43.908Z,216.37
2022-11-24T05:52:31.825Z,213.30
2022-11-24T05:55:20.431Z,213.40
2022-11-24T05:58:09.790Z,197.97
2022-11-24T06:00:57.714Z,227.57
2022-11-24T06:03:45.576Z,218.63
2022-11-24T06:06:34.824Z,218.17
2022-11-24T06:09:22.751Z,211.67
2022-11-24T06:12:11.932Z,227.57
2022-11-24T06:14:59.831Z,210.93
2022-11-24T06:17:53.730Z,201.63
2022-11-24T06:20:42.244Z,203.80
2022-11-24T06:23:35.359Z,206.10
2022-11-24T06:26:23.243Z,210.63
2022-11-24T06:29:11.229Z,233.00
2022-11-24T06:31:59.192Z,196.10
2022-11-24T06:34:47.197Z,201.03
2022-11-24T06:37:37.004Z,225.90
2022-11-24T06:40:26.294Z,208.80
2022-11-24T06:43:15.078Z,210.80
2022-11-24T06:46:03.378Z,209.67
2022-11-24T06:48:52.275Z,205.40
2022-11-24T06:51:40.170Z,182.40
2022-11-24T06:54:28.127Z,194.27
2022-11-24T06:57:17.352Z,180.50
2022-11-24T07:00:07.778Z,178.20
2022-11-24T07:02:55.780Z,191.87
2022-11-24T07:05:23.340Z,195.07
2022-11-24T07:07:51.184Z,178.97
2022-11-24T07:10:19.348Z,187.60
2022-11-24T07:12:48.366Z,198.33
2022-11-24T07:15:16.050Z,204.40
2022-11-24T07:17:43.639Z,184.47
2022-11-24T07:20:11.632Z,218.33
2022-11-24T07:22:39.288Z,219.00
2022-11-24T07:25:09.669Z,207.37
2022-11-24T07:27:38.003Z,210.87
2022-11-24T07:30:08.493Z,219.17
2022-11-24T07:32:36.169Z,212.87
2022-11-24T07:35:03.685Z,201.97
2022-11-24T07:37:32.041Z,211.60
2022-11-24T07:39:59.809Z,211.13
2022-11-24T07:42:28.385Z,208.60
2022-11-24T07:44:56.066Z,205.17
2022-11-24T07:47:25.087Z,214.97
2022-11-24T07:49:52.732Z,223.30
2022-11-24T07:52:20.389Z,217.93
2022-11-24T07:54:48.007Z,219.63
2022-11-24T07:57:15.686Z,240.10
2022-11-24T07:59:43.308Z,228.60
2022-11-24T08:02:13.155Z,225.10
2022-11-24T08:04:42.137Z,226.50
2022-11-24T08:07:09.897Z,221.07
2022-11-24T08:09:37.583Z,220.43
2022-11-24T08:12:05.607Z,228.50
2022-11-24T08:14:33.404Z,206.70
2022-11-24T08:17:01.315Z,223.93
2022-11-24T08:19:28.956Z,238.03
2022-11-24T08:21:57.899Z,222.07
2022-11-24T08:24:25.592Z,240.30
2022-11-24T08:26:53.228Z,243.53
2022-11-24T08:29:20.929Z,236.73
2022-11-24T08:31:48.585Z,219.80
2022-11-24T08:34:16.247Z,229.43
2022-11-24T08:36:43.867Z,245.17
2022-11-24T08:39:12.964Z,235.80
2022-11-24T08:41:40.593Z,237.47
2022-11-24T08:44:10.567Z,223.13
2022-11-24T08:46:38.536Z,244.90
2022-11-24T08:49:07.156Z,231.30
2022-11-24T08:51:34.972Z,264.83
2022-11-24T08:54:03.159Z,253.93
2022-11-24T08:56:33.785Z,250.03
2022-11-24T08:59:01.851Z,248.80
2022-11-24T09:01:30.848Z,228.93
2022-11-24T09:03:58.722Z,236.03
2022-11-24T09:06:30.699Z,236.43
2022-11-24T09:08:59.273Z,248.17
2022-11-24T09:11:27.980Z,227.60
2022-11-24T09:13:57.202Z,235.23
2022-11-24T09:16:27.150Z,228.33
2022-11-24T09:18:59.571Z,240.97
2022-11-24T09:21:27.746Z,225.17
2022-11-24T09:23:56.423Z,233.03
2022-11-24T09:26:26.804Z,224.70
2022-11-24T09:28:57.542Z,245.67
2022-11-24T09:31:27.639Z,224.63
2022-11-24T09:33:55.857Z,230.43
2022-11-24T09:36:24.666Z,248.87
2022-11-24T09:38:52.360Z,218.60
2022-11-24T09:41:31.111Z,243.50
2022-11-24T09:44:08.401Z,229.03
2022-11-24T09:46:44.400Z,236.67
2022-11-24T09:49:17.603Z,209.97
2022-11-24T09:51:48.038Z,222.63
2022-11-24T09:54:20.864Z,226.47
2022-11-24T09:56:51.176Z,222.20
2022-11-24T09:59:22.789Z,215.33
2022-11-24T10:01:52.267Z,236.27
2022-11-24T10:04:23.407Z,234.23
2022-11-24T10:07:01.023Z,231.77
2022-11-24T10:09:44.241Z,246.03
2022-11-24T10:12:23.700Z,230.13
2022-11-24T10:15:18.821Z,229.43
2022-11-24T10:18:16.754Z,217.82
2022-11-24T10:20:55.677Z,236.23
2022-11-24T10:23:40.780Z,224.52
2022-11-24T10:26:13.430Z,238.95
2022-11-24T10:28:45.834Z,239.40
2022-11-24T10:31:24.973Z,263.33
2022-11-24T10:33:52.745Z,257.02
2022-11-24T10:36:26.417Z,271.35
2022-11-24T10:39:01.950Z,263.90
2022-11-24T10:41:40.565Z,278.13
2022-11-24T10:44:13.579Z,279.63
2022-11-24T10:46:43.244Z,264.55
2022-11-24T10:49:18.916Z,279.30
2022-11-24T10:52:01.354Z,254.50
2022-11-24T10:54:29.748Z,277.88
2022-11-24T10:56:57.447Z,314.95
2022-11-24T10:59:37.374Z,304.60
2022-11-24T11:02:32.469Z,315.73
2022-11-24T11:05:20.339Z,284.48
2022-11-24T11:07:49.446Z,293.15
2022-11-24T11:10:22.710Z,276.70
2022-11-24T11:12:50.992Z,288.00
2022-11-24T11:15:24.285Z,293.52
2022-11-24T11:17:57.208Z,285.92
2022-11-24T11:20:29.609Z,294.88
2022-11-24T11:23:01.427Z,277.85
2022-11-24T11:25:33.603Z,296.88
2022-11-24T11:28:27.611Z,303.52
2022-11-24T11:31:19.662Z,272.42
2022-11-24T11:34:03.687Z,288.55
2022-11-24T11:36:34.027Z,293.05
2022-11-24T11:39:04.522Z,297.50
2022-11-24T11:41:36.892Z,306.98
2022-11-24T11:44:34.331Z,313.23
2022-11-24T11:47:09.868Z,294.00
2022-11-24T11:49:39.496Z,306.40
2022-11-24T11:52:30.153Z,289.48
2022-11-24T11:55:27.884Z,296.48
2022-11-24T11:58:08.157Z,282.23
2022-11-24T12:00:39.773Z,292.23
2022-11-24T12:03:33.097Z,290.38
2022-11-24T12:06:09.661Z,317.63
2022-11-24T12:09:17.943Z,305.13
2022-11-24T12:11:42.857Z,313.90
2022-11-24T12:14:25.540Z,338.05
2022-11-24T12:17:02.201Z,324.85
2022-11-24T12:19:46.626Z,355.10
2022-11-24T12:22:23.255Z,330.55
2022-11-24T12:24:58.484Z,368.33
2022-11-24T12:27:40.039Z,352.52
2022-11-24T12:30:13.626Z,346.08
2022-11-24T12:33:02.887Z,361.00
2022-11-24T12:35:37.078Z,346.48
2022-11-24T12:38:20.597Z,334.13
2022-11-24T12:41:39.668Z,352.35
2022-11-24T12:44:00.698Z,344.85
2022-11-24T12:46:36.109Z,350.90
2022-11-24T12:49:13.742Z,348.02
2022-11-24T12:51:45.527Z,342.52
2022-11-24T12:54:15.437Z,360.13
2022-11-24T12:56:48.018Z,343.27
2022-11-24T12:59:35.456Z,342.98
2022-11-24T13:02:15.237Z,325.00
2022-11-24T13:04:50.868Z,339.77
2022-11-24T13:07:25.246Z,333.25
2022-11-24T13:10:55.728Z,356.00
2022-11-24T13:13:19.528Z,322.50
2022-11-24T13:19:10.343Z,321.77
2022-11-24T13:21:50.841Z,327.05
2022-11-24T13:24:25.107Z,352.15
2022-11-24T13:26:54.967Z,338.08
2022-11-24T13:29:34.741Z,333.15
2022-11-24T13:32:42.083Z,326.73
2022-11-24T13:35:16.360Z,311.33
2022-11-24T13:37:51.515Z,342.60
2022-11-24T13:40:59.660Z,309.80
2022-11-24T13:43:31.288Z,306.23
2022-11-24T13:45:58.969Z,317.42
2022-11-24T13:49:03.706Z,324.73
2022-11-24T13:51:33.016Z,279.15
2022-11-24T13:54:02.252Z,318.25
2022-11-24T13:56:31.556Z,283.15
2022-11-24T13:59:02.019Z,298.77
2022-11-24T14:01:32.303Z,295.48
2022-11-24T14:07:05.577Z,286.75
2022-11-24T14:09:38.377Z,292.70
2022-11-24T14:12:13.471Z,317.40
2022-11-24T14:14:41.300Z,316.88
2022-11-24T14:17:16.733Z,318.65
2022-11-24T14:19:45.932Z,339.27
2022-11-24T14:22:17.885Z,345.45
2022-11-24T14:24:47.005Z,353.95
2022-11-24T14:27:17.491Z,342.40
2022-11-24T14:29:56.370Z,358.58
2022-11-24T14:32:24.776Z,350.90
2022-11-24T14:34:54.324Z,361.42
2022-11-24T14:37:23.675Z,368.10
2022-11-24T14:39:51.270Z,364.50
2022-11-24T14:42:22.188Z,338.00
2022-11-24T14:44:54.171Z,341.23
2022-11-24T14:47:31.217Z,347.98
2022-11-24T14:50:08.603Z,334.00
2022-11-24T14:52:44.928Z,338.15
2022-11-24T14:55:26.215Z,335.95
2022-11-24T14:57:53.910Z,342.20
2022-11-24T15:00:28.927Z,338.02
2022-11-24T15:03:09.350Z,321.85
2022-11-24T15:05:55.531Z,327.35
2022-11-24T15:08:26.172Z,321.88
2022-11-24T15:11:01.892Z,316.27
2022-11-24T15:13:33.973Z,319.27
2022-11-24T15:16:04.543Z,346.67
2022-11-24T15:18:40.143Z,323.55
2022-11-24T15:21:07.921Z,337.17
2022-11-24T15:23:37.737Z,332.83
2022-11-24T15:26:30.211Z,331.13
2022-11-24T15:28:59.765Z,312.38
2022-11-24T15:31:27.450Z,319.23
2022-11-24T15:33:55.091Z,345.60
2022-11-24T15:36:22.739Z,308.50
2022-11-24T15:38:52.047Z,317.92
2022-11-24T15:41:22.220Z,328.42
2022-11-24T15:43:49.886Z,317.30
2022-11-24T15:46:17.578Z,330.00
2022-11-24T15:48:45.231Z,325.63
2022-11-24T15:51:15.242Z,314.25
2022-11-24T15:53:46.245Z,297.70
2022-11-24T15:56:20.102Z,315.53
2022-11-24T15:58:48.425Z,284.45
2022-11-24T16:01:16.153Z,287.87
2022-11-24T16:03:47.498Z,297.67
2022-11-24T16:06:24.056Z,290.10
2022-11-24T16:08:53.231Z,260.67
2022-11-24T16:11:22.817Z,255.07
2022-11-24T16:13:53.488Z,255.93
2022-11-24T16:16:23.281Z,265.57
2022-11-24T16:18:51.234Z,247.60
2022-11-24T16:21:19.116Z,239.77
2022-11-24T16:23:47.735Z,261.70
2022-11-24T16:26:15.408Z,238.53
2022-11-24T16:28:45.623Z,216.23
2022-11-24T16:31:15.565Z,217.93
2022-11-24T16:33:44.592Z,234.53
2022-11-24T16:36:12.812Z,211.87
2022-11-24T16:38:40.556Z,206.70
2022-11-24T16:41:10.212Z,186.67
2022-11-24T16:43:38.106Z,214.97
2022-11-24T16:46:19.427Z,203.13
2022-11-24T16:48:48.615Z,205.43
2022-11-24T16:51:17.109Z,213.97
2022-11-24T16:53:45.221Z,206.10
2022-11-24T16:56:14.239Z,199.50
2022-11-24T16:58:42.149Z,203.20
2022-11-24T17:01:13.711Z,209.43
2022-11-24T17:03:41.827Z,210.03
2022-11-24T17:06:11.216Z,194.73
2022-11-24T17:08:40.596Z,193.43
2022-11-24T17:11:08.832Z,199.93
2022-11-24T17:13:36.574Z,193.60
2022-11-24T17:16:05.772Z,197.27
2022-11-24T17:18:35.412Z,212.70
2022-11-24T17:21:09.200Z,216.53
2022-11-24T17:23:37.925Z,190.93
2022-11-24T17:26:07.031Z,210.40
2022-11-24T17:28:35.113Z,205.40
2022-11-24T17:31:07.396Z,216.00
2022-11-24T17:33:36.959Z,191.17
2022-11-24T17:36:05.444Z,195.73
2022-11-24T17:38:33.223Z,201.90
2022-11-24T17:41:00.824Z,202.00
2022-11-24T17:43:28.489Z,205.47
2022-11-24T17:45:57.186Z,206.70
2022-11-24T17:48:25.566Z,208.50
2022-11-24T17:51:01.310Z,195.83
2022-11-24T17:53:29.285Z,190.60
2022-11-24T17:56:00.720Z,189.90
2022-11-24T17:58:29.016Z,181.17
2022-11-24T18:00:56.870Z,197.53
2022-11-24T18:03:25.556Z,183.43
2022-11-24T18:05:53.218Z,204.60
2022-11-24T18:08:22.195Z,213.10
2022-11-24T18:10:49.829Z,212.10
2022-11-24T18:13:34.196Z,217.73
2022-11-24T18:16:07.982Z,219.90
2022-11-24T18:18:40.135Z,219.53
2022-11-24T18:21:12.597Z,220.80
2022-11-24T18:23:42.436Z,216.30
2022-11-24T18:26:12.857Z,235.53
2022-11-24T18:28:40.539Z,228.30
2022-11-24T18:31:11.588Z,243.30
2022-11-24T18:33:40.457Z,232.27
2022-11-24T18:36:09.342Z,224.07
2022-11-24T18:38:37.594Z,250.27
2022-11-24T18:41:08.156Z,236.37
2022-11-24T18:43:38.033Z,241.83
2022-11-24T18:46:07.596Z,241.30
2022-11-24T18:48:35.936Z,243.37
2022-11-24T18:51:03.911Z,238.30
2022-11-24T18:53:31.840Z,256.87
2022-11-24T18:56:00.871Z,234.83
2022-11-24T18:58:32.905Z,249.40
2022-11-24T19:01:08.022Z,266.87
2022-11-24T19:03:37.987Z,245.60
2022-11-24T19:06:06.756Z,259.77
2022-11-24T19:08:34.722Z,247.27
2022-11-24T19:11:02.568Z,237.90
2022-11-24T19:13:31.566Z,228.80
2022-11-24T19:16:00.270Z,234.27
2022-11-24T19:18:29.981Z,248.37
2022-11-24T19:20:58.176Z,214.80
2022-11-24T19:23:25.862Z,214.00
2022-11-24T19:25:53.450Z,208.47
2022-11-24T19:28:21.110Z,230.03
2022-11-24T19:30:50.177Z,236.60
2022-11-24T19:33:18.797Z,244.07
2022-11-24T19:35:46.461Z,230.13
2022-11-24T19:38:15.305Z,252.70
2022-11-24T19:40:43.031Z,244.60
2022-11-24T19:43:10.634Z,222.07
2022-11-24T19:45:43.752Z,225.57
2022-11-24T19:48:12.903Z,226.77
2022-11-24T19:50:40.595Z,206.53
2022-11-24T19:53:08.189Z,206.13
2022-11-24T19:55:35.829Z,232.50
2022-11-24T19:58:03.421Z,205.47
2022-11-24T20:00:32.185Z,203.23
2022-11-24T20:03:00.044Z,186.77
2022-11-24T20:05:29.119Z,220.93
2022-11-24T20:07:56.787Z,212.20
2022-11-24T20:10:24.765Z,193.73
2022-11-24T20:12:52.425Z,214.53
2022-11-24T20:15:20.537Z,194.70
2022-11-24T20:17:48.183Z,195.77
2022-11-24T20:20:15.895Z,196.17
2022-11-24T20:22:44.913Z,200.30
2022-11-24T20:25:12.590Z,219.37
2022-11-24T20:27:40.174Z,200.60
2022-11-24T20:30:10.368Z,193.17
2022-11-24T20:32:37.980Z,199.10
2022-11-24T20:35:06.171Z,216.53
2022-11-24T20:37:34.027Z,210.30
2022-11-24T20:40:04.150Z,208.13
2022-11-24T20:42:32.736Z,186.93
2022-11-24T20:45:00.784Z,189.90
2022-11-24T20:47:30.696Z,189.30
2022-11-24T20:49:58.362Z,195.40
2022-11-24T20:52:26.022Z,171.73
2022-11-24T20:54:53.636Z,181.30
2022-11-24T20:57:22.665Z,190.27
2022-11-24T20:59:52.242Z,186.80
2022-11-24T21:02:21.065Z,199.47
2022-11-24T21:05:09.238Z,184.00
2022-11-24T21:07:57.197Z,171.57
2022-11-24T21:10:53.458Z,171.93
2022-11-24T21:13:45.592Z,170.63
2022-11-24T21:16:35.611Z,158.63
2022-11-24T21:19:23.651Z,158.83
2022-11-24T21:22:11.553Z,160.93
2022-11-24T21:24:59.451Z,147.87
2022-11-24T21:27:47.358Z,147.77
2022-11-24T21:30:37.379Z,155.07
2022-11-24T21:33:25.676Z,166.77
2022-11-24T21:36:15.298Z,170.23
2022-11-24T21:39:04.719Z,183.63
2022-11-24T21:41:52.698Z,183.83
2022-11-24T21:44:40.591Z,197.67
2022-11-24T21:47:29.802Z,202.60
2022-11-24T21:50:17.714Z,218.97
2022-11-24T21:53:05.634Z,206.80
2022-11-24T21:55:56.745Z,207.00
2022-11-24T21:58:45.700Z,222.43
2022-11-24T22:01:33.741Z,214.13
2022-11-24T22:04:23.079Z,206.17
2022-11-24T22:07:10.975Z,210.33
2022-11-24T22:09:59.106Z,237.07
2022-11-24T22:12:46.988Z,219.70
2022-11-24T22:15:34.961Z,208.57
2022-11-24T22:18:22.862Z,221.70
2022-11-24T22:21:14.668Z,210.17
2022-11-24T22:24:03.361Z,223.90
2022-11-24T22:26:51.607Z,211.27
2022-11-24T22:29:39.509Z,206.27
2022-11-24T22:32:27.783Z,202.40
2022-11-24T22:35:15.789Z,194.90
2022-11-24T22:38:05.017Z,181.13
2022-11-24T22:40:52.974Z,195.43
2022-11-24T22:43:42.656Z,188.70
2022-11-24T22:46:31.796Z,193.63
2022-11-24T22:49:19.716Z,185.93
2022-11-24T22:52:07.621Z,176.77
2022-11-24T22:54:56.995Z,173.50
2022-11-24T22:57:48.074Z,174.47
2022-11-24T23:00:37.326Z,176.10
2022-11-24T23:03:25.340Z,170.23
2022-11-24T23:06:15.173Z,166.97
2022-11-24T23:09:04.677Z,158.93
2022-11-24T23:11:53.941Z,174.30
2022-11-24T23:14:41.810Z,172.37
2022-11-24T23:17:29.735Z,164.10
2022-11-24T23:20:17.682Z,155.60
2022-11-24T23:23:05.673Z,153.73
2022-11-24T23:25:54.591Z,154.93
2022-11-24T23:28:44.148Z,153.47
2022-11-24T23:31:32.978Z,142.50
2022-11-24T23:34:20.944Z,139.33
2022-11-24T23:37:08.840Z,139.70
2022-11-24T23:39:56.740Z,135.57
2022-11-24T23:42:47.594Z,130.63
2022-11-24T23:45:36.880Z,129.57
2022-11-24T23:48:24.840Z,130.40
2022-11-24T23:51:14.460Z,128.83
2022-11-24T23:54:02.434Z,129.13
2022-11-24T23:56:50.334Z,129.03
2022-11-24T23:59:38.256Z,122.80
